Tuesday, January 16, 2018, 6:52 AM EST
Back to Local

KHUL, Houlton Int'l Airport

Location: Houlton, ME, United States Lat: 46.117
Local Time: 6:52 AM EST (11:52 GMT) Lon: -67.8
Time Zone: US/Eastern Elev: 492 ft

Show me the last for .
Show Decoded

2018-01-16 06:34 METAR KHUL 161134Z AUTO 36005KT 1 3/4SM -SN BR OVC018 M14/M16 A3046 RMK AO2
                 P0000 T11391161 =
2018-01-16 06:05 METAR KHUL 161105Z AUTO 36006KT 2 1/2SM -SN BR OVC017 M14/M16 A3047 RMK AO2
                 P0000 T11391161 =
2018-01-16 05:53 METAR KHUL 161053Z AUTO 36006KT 3SM -SN BR OVC016 M14/M16 A3048 RMK AO2 SLP335
                 P0000 T11391161 =
2018-01-16 05:17 METAR KHUL 161017Z AUTO 01004KT 3SM -SN BR OVC016 M14/M16 A3046 RMK AO2 P0000
                 T11391161 =
2018-01-16 04:53 METAR KHUL 160953Z AUTO 01008KT 2 1/2SM -SN BR OVC016 M14/M16 A3047 RMK AO2
                 SLP331 P0000 T11391161 =
2018-01-16 04:34 METAR KHUL 160934Z AUTO 33004KT 2 1/2SM -SN BR OVC015 M14/M16 A3049 RMK AO2
                 P0000 T11391161 =
2018-01-16 03:53 METAR KHUL 160853Z AUTO 02004KT 5SM -SN OVC015 M14/M17 A3048 RMK AO2 SNB50
                 SLP335 P0000 60000 T11391167 56022 =
2018-01-16 02:53 METAR KHUL 160753Z AUTO 01008KT 7SM OVC015 M14/M17 A3049 RMK AO2 SLP338
                 T11441167 =
2018-01-16 01:53 METAR KHUL 160653Z AUTO 01006KT 6SM BR OVC019 M14/M16 A3053 RMK AO2 SNE17 SLP351
                 P0000 T11391161 =
2018-01-16 01:12 METAR KHUL 160612Z AUTO 01009KT 4SM -SN BR OVC020 M14/M16 A3055 RMK AO2 P0000
                 T11391161 =
2018-01-16 01:00 METAR KHUL 160600Z AUTO 36006KT 2 1/2SM -SN BR OVC022 M14/M16 A3056 RMK AO2
                 P0000 T11391161 =
2018-01-16 00:53 METAR KHUL 160553Z AUTO 36006KT 3SM -SN BR OVC022 M14/M16 A3055 RMK AO2 SLP358
                 P0000 60000 T11391156 11128 21139 56017 =
2018-01-15 23:53 METAR KHUL 160453Z AUTO 02006KT 2SM -SN BR OVC021 M13/M16 A3056 RMK AO2 SLP363
                 P0000 T11331156 411171239 =
2018-01-15 22:53 METAR KHUL 160353Z AUTO 35007KT 2SM -SN BR OVC020 M13/M16 A3057 RMK AO2 SLP366
                 P0000 T11331156 =
2018-01-15 22:01 METAR KHUL 160301Z AUTO 36007KT 2 1/2SM -SN BR OVC018 M13/M15 A3060 RMK AO2
                 P0000 T11331150 =
2018-01-15 21:53 METAR KHUL 160253Z AUTO 01005KT 3SM -SN BR OVC018 M13/M15 A3060 RMK AO2 SLP376
                 P0000 60000 T11281150 58027 =
2018-01-15 21:18 METAR KHUL 160218Z AUTO 02006KT 4SM -SN BR OVC019 M13/M15 A3060 RMK AO2 PRESFR
                 P0000 T11331150 =
2018-01-15 21:00 METAR KHUL 160200Z AUTO 02007KT 2 1/2SM -SN BR OVC021 M13/M15 A3062 RMK AO2
                 P0000 T11331150 =
2018-01-15 20:53 METAR KHUL 160153Z AUTO 01006KT 3SM -SN BR OVC021 M13/M15 A3063 RMK AO2 SNB0054
                 SLP387 P0000 T11331150 =
2018-01-15 20:31 METAR KHUL 160131Z AUTO 01005KT 2 1/2SM -SN BR OVC021 M13/M16 A3064 RMK AO2
                 SNB0054 P0000 T11331156 =
2018-01-15 19:53 METAR KHUL 160053Z AUTO 01007KT 4SM BR OVC020 M13/M16 A3066 RMK AO2 SLP399
                 T11331156 =
2018-01-15 18:53 METAR KHUL 152353Z AUTO 01007KT 7SM OVC020 M14/M16 A3068 RMK AO2 SLP405 60000
                 T11391161 11117 21139 58008 =
2018-01-15 17:53 METAR KHUL 152253Z AUTO 35003KT 9SM OVC021 M14/M16 A3071 RMK AO2 SLP417
                 T11391161 =
2018-01-15 16:53 METAR KHUL 152153Z AUTO 02007KT 7SM OVC022 M13/M16 A3072 RMK AO2 SNE39 SLP419
                 P0000 T11331161 =
2018-01-15 15:53 METAR KHUL 152053Z AUTO 02007KT 4SM -SN OVC024 M13/M16 A3070 RMK AO2 SLP414
                 P0000 60000 T11331161 56010 =
2018-01-15 14:53 METAR KHUL 151953Z AUTO 36007KT 3SM -SN OVC023 M13/M16 A3071 RMK AO2 SNB11
                 SLP415 P0000 T11281161 =
2018-01-15 13:53 METAR KHUL 151853Z AUTO 36005KT 10SM BKN024 M12/M16 A3072 RMK AO2 SLP419
                 T11171156 =
2018-01-15 13:12 METAR KHUL 151812Z AUTO 36004KT 10SM BKN025 M13/M16 A3074 RMK AO2 T11281161 =
2018-01-15 12:53 METAR KHUL 151753Z AUTO 36007KT 10SM CLR M13/M17 A3074 RMK AO2 SLP424 60000
                 T11281167 11128 21239 58035 =
2018-01-15 11:53 METAR KHUL 151653Z AUTO 36007KT 10SM CLR M14/M18 A3078 RMK AO2 SNE13 SLP439
                 P0000 T11441183 =
2018-01-15 11:28 METAR KHUL 151628Z AUTO 01009KT 10SM FEW009 SCT012 SCT024 M16/M19 A3079 RMK AO2
                 SNE13 PRESFR P0000 T11561189 =
2018-01-15 11:05 METAR KHUL 151605Z AUTO 02006KT 3SM -SN BKN016 OVC024 M16/M20 A3083 RMK AO2
                 P0000 T11611200 =
2018-01-15 10:53 METAR KHUL 151553Z AUTO 01006KT 2 1/2SM -SN BKN018 OVC025 M16/M20 A3084 RMK AO2
                 SNB38 SLP459 P0000 T11611200 =
2018-01-15 10:48 METAR KHUL 151548Z AUTO 02005KT 2SM -SN BKN020 OVC025 M17/M20 A3084 RMK AO2
                 SNB38 P0000 =
2018-01-15 10:15 METAR KHUL 151515Z AUTO 01003KT 10SM BKN015 M17/M21 A3086 RMK AO2 T11721211 =
2018-01-15 09:53 METAR KHUL 151453Z AUTO 01003KT 10SM CLR M18/M22 A3086 RMK AO2 SLP468 T11831217
                 53007 =
2018-01-15 08:53 METAR KHUL 151353Z AUTO 02007KT 10SM CLR M21/M24 A3085 RMK AO2 SLP463 T12061239
                 =
2018-01-15 07:53 METAR KHUL 151253Z AUTO 36004KT 10SM CLR M23/M26 A3085 RMK AO2 SLP465 T12281256
                 =
2018-01-15 06:53 METAR KHUL 151153Z AUTO 00000KT 10SM CLR M24/M26 A3084 RMK AO2 SLP462 I6000
                 T12391261 11211 21239 53017 =

Support USWX by starting your Amazon purchase here.